createdAt,value
2018-12-30T00:01:41.781Z,5.24
2018-12-30T00:04:10.141Z,5.18
2018-12-30T00:06:40.164Z,5.20
2018-12-30T00:09:08.936Z,5.27
2018-12-30T00:11:37.685Z,5.39
2018-12-30T00:14:06.119Z,5.45
2018-12-30T00:16:34.445Z,5.64
2018-12-30T00:19:02.854Z,5.78
2018-12-30T00:21:31.303Z,5.81
2018-12-30T00:23:59.734Z,5.78
2018-12-30T00:26:30.905Z,5.87
2018-12-30T00:28:59.625Z,5.96
2018-12-30T00:31:28.061Z,6.00
2018-12-30T00:33:56.493Z,6.00
2018-12-30T00:36:24.952Z,6.04
2018-12-30T00:38:53.285Z,6.05
2018-12-30T00:41:21.640Z,6.11
2018-12-30T00:43:50.297Z,6.16
2018-12-30T00:46:18.738Z,6.18
2018-12-30T00:48:47.786Z,6.12
2018-12-30T00:51:17.227Z,6.18
2018-12-30T00:53:45.825Z,6.27
2018-12-30T00:56:14.843Z,6.23
2018-12-30T00:58:43.148Z,6.27
2018-12-30T01:01:11.828Z,6.32
2018-12-30T01:03:40.196Z,6.36
2018-12-30T01:06:08.962Z,6.33
2018-12-30T01:08:37.297Z,6.40
2018-12-30T01:11:06.085Z,6.45
2018-12-30T01:13:35.142Z,6.38
2018-12-30T01:16:03.510Z,6.45
2018-12-30T01:18:31.941Z,6.47
2018-12-30T01:21:00.311Z,6.51
2018-12-30T01:23:28.717Z,6.45
2018-12-30T01:25:57.169Z,6.49
2018-12-30T01:28:25.635Z,6.51
2018-12-30T01:30:53.969Z,6.60
2018-12-30T01:33:22.397Z,6.76
2018-12-30T01:35:50.834Z,6.89
2018-12-30T01:38:19.163Z,6.94
2018-12-30T01:40:48.296Z,7.03
2018-12-30T01:43:16.701Z,7.09
2018-12-30T01:45:45.055Z,7.09
2018-12-30T01:48:14.068Z,7.19
2018-12-30T01:50:42.461Z,7.30
2018-12-30T01:53:10.873Z,7.33
2018-12-30T01:55:39.285Z,7.41
2018-12-30T01:58:07.711Z,7.40
2018-12-30T02:00:36.063Z,7.38
2018-12-30T02:03:04.516Z,7.44
2018-12-30T02:05:33.210Z,7.52
2018-12-30T02:08:01.646Z,7.46
2018-12-30T02:10:29.986Z,7.52
2018-12-30T02:12:58.322Z,7.45
2018-12-30T02:15:27.668Z,7.55
2018-12-30T02:17:56.043Z,7.57
2018-12-30T02:20:24.475Z,7.55
2018-12-30T02:22:52.792Z,7.58
2018-12-30T02:25:21.143Z,7.48
2018-12-30T02:27:49.511Z,7.67
2018-12-30T02:30:18.316Z,7.66
2018-12-30T02:32:46.771Z,7.65
2018-12-30T02:35:16.199Z,7.73
2018-12-30T02:37:44.536Z,7.75
2018-12-30T02:40:13.398Z,7.79
2018-12-30T02:42:41.741Z,7.79
2018-12-30T02:45:10.056Z,7.76
2018-12-30T02:47:38.489Z,7.75
2018-12-30T02:50:07.407Z,7.72
2018-12-30T02:52:35.762Z,7.72
2018-12-30T02:55:05.027Z,7.82
2018-12-30T02:57:33.476Z,7.76
2018-12-30T03:00:02.155Z,7.73
2018-12-30T03:02:30.581Z,7.82
2018-12-30T03:04:59.108Z,7.84
2018-12-30T03:07:27.665Z,7.84
2018-12-30T03:09:56.010Z,7.91
2018-12-30T03:12:24.353Z,7.88
2018-12-30T03:14:52.703Z,7.85
2018-12-30T03:17:21.029Z,7.84
2018-12-30T03:19:49.459Z,7.92
2018-12-30T03:22:17.789Z,7.84
2018-12-30T03:24:46.458Z,7.85
2018-12-30T03:27:15.022Z,7.83
2018-12-30T03:29:43.428Z,7.83
2018-12-30T03:32:11.752Z,7.85
2018-12-30T03:34:40.135Z,7.97
2018-12-30T03:37:08.454Z,8.00
2018-12-30T03:39:36.879Z,7.99
2018-12-30T03:42:05.263Z,8.01
2018-12-30T03:44:33.584Z,7.99
2018-12-30T03:47:01.925Z,8.02
2018-12-30T03:49:30.271Z,8.02
2018-12-30T03:51:58.596Z,7.96
2018-12-30T03:54:26.945Z,7.99
2018-12-30T03:56:55.365Z,7.94
2018-12-30T03:59:23.701Z,7.94
2018-12-30T04:01:52.038Z,7.94
2018-12-30T04:04:20.404Z,7.96
2018-12-30T04:06:48.732Z,7.87
2018-12-30T04:09:17.154Z,7.86
2018-12-30T04:11:45.555Z,7.90
2018-12-30T04:14:14.346Z,7.96
2018-12-30T04:16:42.660Z,8.03
2018-12-30T04:19:11.012Z,8.07
2018-12-30T04:21:39.418Z,8.10
2018-12-30T04:24:07.732Z,8.05
2018-12-30T04:26:36.078Z,8.09
2018-12-30T04:29:04.425Z,8.17
2018-12-30T04:31:32.800Z,8.07
2018-12-30T04:34:01.136Z,8.07
2018-12-30T04:36:29.536Z,8.07
2018-12-30T04:38:57.880Z,8.10
2018-12-30T04:41:26.201Z,8.18
2018-12-30T04:43:54.549Z,8.15
2018-12-30T04:46:22.895Z,8.16
2018-12-30T04:48:51.238Z,8.09
2018-12-30T04:51:19.631Z,8.11
2018-12-30T04:53:47.973Z,8.03
2018-12-30T04:56:16.282Z,7.95
2018-12-30T04:58:45.130Z,7.99
2018-12-30T05:01:14.059Z,7.99
2018-12-30T05:03:42.390Z,7.97
2018-12-30T05:06:10.702Z,8.03
2018-12-30T05:08:39.027Z,7.99
2018-12-30T05:11:07.438Z,7.91
2018-12-30T05:13:35.742Z,7.85
2018-12-30T05:16:04.051Z,7.78
2018-12-30T05:18:32.398Z,7.75
2018-12-30T05:21:00.774Z,7.72
2018-12-30T05:23:29.155Z,7.75
2018-12-30T05:25:57.509Z,7.71
2018-12-30T05:28:25.829Z,7.79
2018-12-30T05:30:54.168Z,7.89
2018-12-30T05:33:22.507Z,7.86
2018-12-30T05:35:51.353Z,7.90
2018-12-30T05:38:20.151Z,7.87
2018-12-30T05:40:48.479Z,7.90
2018-12-30T05:43:16.862Z,7.92
2018-12-30T05:45:45.222Z,7.93
2018-12-30T05:48:14.060Z,7.90
2018-12-30T05:50:42.372Z,7.92
2018-12-30T05:53:10.754Z,7.83
2018-12-30T05:55:39.081Z,7.88
2018-12-30T05:58:07.428Z,7.93
2018-12-30T06:00:35.842Z,7.91
2018-12-30T06:03:04.203Z,7.93
2018-12-30T06:05:32.514Z,7.81
2018-12-30T06:08:00.852Z,7.92
2018-12-30T06:10:29.183Z,7.93
2018-12-30T06:12:57.528Z,7.93
2018-12-30T06:15:25.848Z,7.95
2018-12-30T06:17:54.200Z,7.88
2018-12-30T06:20:22.521Z,7.98
2018-12-30T06:22:50.860Z,7.97
2018-12-30T06:25:19.289Z,7.90
2018-12-30T06:27:47.760Z,7.85
2018-12-30T06:30:16.593Z,7.82
2018-12-30T06:32:45.313Z,7.81
2018-12-30T06:35:14.014Z,7.72
2018-12-30T06:37:42.342Z,7.68
2018-12-30T06:40:11.523Z,7.69
2018-12-30T06:42:40.048Z,7.98
2018-12-30T06:45:08.365Z,7.98
2018-12-30T06:47:36.699Z,7.95
2018-12-30T06:50:06.069Z,8.11
2018-12-30T06:52:34.398Z,7.98
2018-12-30T06:55:02.722Z,8.01
2018-12-30T06:57:31.056Z,8.00
2018-12-30T06:59:59.403Z,8.00
2018-12-30T07:02:27.736Z,7.96
2018-12-30T07:04:56.100Z,7.97
2018-12-30T07:07:24.692Z,7.92
2018-12-30T07:09:53.039Z,7.91
2018-12-30T07:12:21.358Z,7.93
2018-12-30T07:14:49.685Z,7.98
2018-12-30T07:17:17.994Z,8.09
2018-12-30T07:19:46.365Z,7.98
2018-12-30T07:22:14.679Z,7.90
2018-12-30T07:24:43.036Z,7.88
2018-12-30T07:27:11.328Z,7.85
2018-12-30T07:29:39.669Z,7.85
2018-12-30T07:32:08.261Z,7.91
2018-12-30T07:34:36.589Z,7.90
2018-12-30T07:37:04.912Z,8.02
2018-12-30T07:39:33.246Z,8.05
2018-12-30T07:42:01.561Z,8.09
2018-12-30T07:44:29.906Z,8.11
2018-12-30T07:46:58.229Z,8.12
2018-12-30T07:49:26.584Z,8.17
2018-12-30T07:51:54.921Z,8.13
2018-12-30T07:54:23.258Z,8.22
2018-12-30T07:56:51.590Z,8.31
2018-12-30T07:59:19.918Z,8.24
2018-12-30T08:01:48.263Z,8.29
2018-12-30T08:04:16.598Z,8.20
2018-12-30T08:06:44.934Z,8.21
2018-12-30T08:09:13.266Z,8.24
2018-12-30T08:11:41.649Z,8.27
2018-12-30T08:14:10.193Z,8.23
2018-12-30T08:16:38.549Z,8.21
2018-12-30T08:19:06.878Z,8.33
2018-12-30T08:21:35.221Z,8.48
2018-12-30T08:24:04.406Z,8.65
2018-12-30T08:26:32.784Z,8.64
2018-12-30T08:29:01.460Z,8.71
2018-12-30T08:31:29.797Z,8.82
2018-12-30T08:33:58.160Z,8.82
2018-12-30T08:36:28.077Z,8.77
2018-12-30T08:38:56.419Z,8.82
2018-12-30T08:41:24.763Z,8.69
2018-12-30T08:43:53.106Z,8.66
2018-12-30T08:46:21.487Z,8.62
2018-12-30T08:48:49.874Z,8.70
2018-12-30T08:51:18.289Z,8.72
2018-12-30T08:53:46.629Z,8.66
2018-12-30T08:56:15.168Z,8.77
2018-12-30T08:58:43.770Z,8.84
2018-12-30T09:01:12.180Z,8.76
2018-12-30T09:03:40.560Z,8.79
2018-12-30T09:06:09.282Z,8.71
2018-12-30T09:08:37.595Z,8.79
2018-12-30T09:11:05.990Z,8.75
2018-12-30T09:13:34.328Z,8.70
2018-12-30T09:16:02.658Z,8.66
2018-12-30T09:18:30.981Z,8.64
2018-12-30T09:20:59.332Z,8.67
2018-12-30T09:23:27.681Z,8.74
2018-12-30T09:25:56.014Z,8.89
2018-12-30T09:28:24.354Z,9.10
2018-12-30T09:30:52.681Z,9.01
2018-12-30T09:33:21.027Z,9.15
2018-12-30T09:35:49.483Z,9.20
2018-12-30T09:38:17.905Z,9.11
2018-12-30T09:40:46.249Z,9.21
2018-12-30T09:43:14.609Z,9.28
2018-12-30T09:45:42.924Z,9.16
2018-12-30T09:48:11.454Z,9.39
2018-12-30T09:50:39.818Z,9.30
2018-12-30T09:53:08.511Z,9.24
2018-12-30T09:55:37.809Z,9.13
2018-12-30T09:58:06.156Z,9.31
2018-12-30T10:00:34.494Z,9.36
2018-12-30T10:03:02.845Z,9.22
2018-12-30T10:05:31.197Z,9.37
2018-12-30T10:07:59.566Z,9.34
2018-12-30T10:10:27.901Z,9.41
2018-12-30T10:12:56.316Z,9.38
2018-12-30T10:15:25.810Z,9.34
2018-12-30T10:17:54.135Z,9.44
2018-12-30T10:20:22.498Z,9.27
2018-12-30T10:22:50.871Z,9.24
2018-12-30T10:25:21.211Z,9.25
2018-12-30T10:27:49.546Z,9.21
2018-12-30T10:30:17.874Z,9.09
2018-12-30T10:32:46.181Z,9.10
2018-12-30T10:35:14.532Z,8.99
2018-12-30T10:37:42.920Z,9.26
2018-12-30T10:40:11.912Z,9.38
2018-12-30T10:42:40.282Z,9.33
2018-12-30T10:45:09.895Z,9.44
2018-12-30T10:47:38.240Z,9.42
2018-12-30T10:50:06.749Z,9.57
2018-12-30T10:52:35.095Z,9.64
2018-12-30T10:55:03.507Z,9.66
2018-12-30T10:57:31.852Z,10.01
2018-12-30T11:00:00.238Z,10.41
2018-12-30T11:02:29.067Z,10.58
2018-12-30T11:04:58.260Z,10.57
2018-12-30T11:07:27.465Z,10.77
2018-12-30T11:09:56.369Z,10.54
2018-12-30T11:12:25.508Z,10.61
2018-12-30T11:14:54.544Z,10.61
2018-12-30T11:17:22.928Z,10.66
2018-12-30T11:19:51.325Z,10.42
2018-12-30T11:22:19.805Z,10.31
2018-12-30T11:24:48.189Z,10.26
2018-12-30T11:27:16.542Z,10.00
2018-12-30T11:29:44.862Z,10.32
2018-12-30T11:32:15.466Z,10.34
2018-12-30T11:34:43.807Z,10.36
2018-12-30T11:37:12.153Z,10.65
2018-12-30T11:39:40.495Z,10.76
2018-12-30T11:42:09.285Z,10.70
2018-12-30T11:44:37.614Z,10.70
2018-12-30T11:47:05.997Z,10.35
2018-12-30T11:49:34.318Z,10.25
2018-12-30T11:52:02.672Z,10.08
2018-12-30T11:54:31.036Z,10.18
2018-12-30T11:56:59.397Z,9.77
2018-12-30T11:59:27.752Z,9.76
2018-12-30T12:01:56.086Z,9.75
2018-12-30T12:04:24.413Z,9.55
2018-12-30T12:06:52.743Z,9.50
2018-12-30T12:09:21.126Z,9.46
2018-12-30T12:11:49.434Z,9.47
2018-12-30T12:14:17.796Z,9.31
2018-12-30T12:16:46.105Z,9.28
2018-12-30T12:19:14.450Z,9.12
2018-12-30T12:21:42.776Z,9.16
2018-12-30T12:24:11.285Z,9.21
2018-12-30T12:26:39.841Z,9.12
2018-12-30T12:29:08.506Z,9.18
2018-12-30T12:31:36.851Z,9.07
2018-12-30T12:34:05.203Z,9.19
2018-12-30T12:36:33.524Z,9.18
2018-12-30T12:39:01.879Z,9.16
2018-12-30T12:41:30.221Z,9.19
2018-12-30T12:43:58.582Z,9.04
2018-12-30T12:46:26.903Z,9.13
2018-12-30T12:48:55.251Z,9.07
2018-12-30T12:51:23.594Z,9.06
2018-12-30T12:53:51.951Z,9.06
2018-12-30T12:56:20.292Z,9.05
2018-12-30T12:58:48.644Z,9.16
2018-12-30T13:01:16.966Z,9.19
2018-12-30T13:03:45.309Z,9.17
2018-12-30T13:06:13.622Z,9.15
2018-12-30T13:08:41.956Z,9.22
2018-12-30T13:11:10.508Z,9.22
2018-12-30T13:13:38.832Z,9.24
2018-12-30T13:16:07.309Z,9.25
2018-12-30T13:18:35.652Z,9.06
2018-12-30T13:21:03.987Z,8.99
2018-12-30T13:23:32.327Z,9.04
2018-12-30T13:26:00.649Z,9.04
2018-12-30T13:28:28.974Z,8.92
2018-12-30T13:30:57.287Z,9.06
2018-12-30T13:33:25.612Z,9.08
2018-12-30T13:35:53.945Z,9.03
2018-12-30T13:38:28.231Z,8.96
2018-12-30T13:40:52.644Z,8.95
2018-12-30T13:43:20.978Z,8.92
2018-12-30T13:45:49.332Z,8.81
2018-12-30T13:48:17.679Z,8.81
2018-12-30T13:50:46.039Z,8.88
2018-12-30T13:53:14.367Z,8.96
2018-12-30T13:55:42.705Z,9.02
2018-12-30T13:58:11.241Z,8.90
2018-12-30T14:00:39.590Z,8.88
2018-12-30T14:03:08.213Z,8.98
2018-12-30T14:05:36.545Z,8.94
2018-12-30T14:08:04.923Z,8.84
2018-12-30T14:10:33.263Z,8.88
2018-12-30T14:13:01.921Z,8.74
2018-12-30T14:15:30.475Z,8.67
2018-12-30T14:17:59.084Z,8.82
2018-12-30T14:20:27.466Z,8.73
2018-12-30T14:22:55.798Z,8.67
2018-12-30T14:25:24.167Z,8.71
2018-12-30T14:27:52.492Z,8.65
2018-12-30T14:30:20.867Z,8.59
2018-12-30T14:32:49.175Z,8.64
2018-12-30T14:35:17.531Z,8.72
2018-12-30T14:37:45.862Z,8.78
2018-12-30T14:40:14.213Z,8.68
2018-12-30T14:42:42.557Z,8.72
2018-12-30T14:45:12.057Z,8.67
2018-12-30T14:47:40.452Z,8.64
2018-12-30T14:50:10.688Z,8.65
2018-12-30T14:52:39.093Z,8.65
2018-12-30T14:55:08.028Z,8.60
2018-12-30T14:57:36.346Z,8.62
2018-12-30T15:00:06.544Z,8.48
2018-12-30T15:02:35.384Z,8.55
2018-12-30T15:05:03.961Z,8.62
2018-12-30T15:07:32.321Z,8.58
2018-12-30T15:10:00.660Z,8.59
2018-12-30T15:12:28.973Z,8.51
2018-12-30T15:14:57.327Z,8.49
2018-12-30T15:17:25.645Z,8.42
2018-12-30T15:19:53.963Z,8.48
2018-12-30T15:22:22.279Z,8.37
2018-12-30T15:24:50.591Z,8.42
2018-12-30T15:27:18.934Z,8.49
2018-12-30T15:29:47.250Z,8.44
2018-12-30T15:32:15.619Z,8.49
2018-12-30T15:34:43.967Z,8.45
2018-12-30T15:37:12.344Z,8.45
2018-12-30T15:39:40.709Z,8.37
2018-12-30T15:42:09.267Z,8.39
2018-12-30T15:44:37.601Z,8.36
2018-12-30T15:47:05.921Z,8.28
2018-12-30T15:49:34.306Z,8.38
2018-12-30T15:52:02.692Z,8.37
2018-12-30T15:54:31.060Z,8.31
2018-12-30T15:56:59.403Z,8.27
2018-12-30T15:59:27.778Z,8.25
2018-12-30T16:01:57.059Z,8.34
2018-12-30T16:04:25.548Z,8.23
2018-12-30T16:06:53.996Z,8.20
2018-12-30T16:09:22.338Z,8.17
2018-12-30T16:11:50.695Z,8.18
2018-12-30T16:14:18.993Z,8.15
2018-12-30T16:16:47.378Z,8.18
2018-12-30T16:19:15.805Z,8.12
2018-12-30T16:21:44.175Z,8.03
2018-12-30T16:24:12.693Z,8.01
2018-12-30T16:26:41.038Z,8.05
2018-12-30T16:29:09.361Z,8.09
2018-12-30T16:31:37.682Z,8.06
2018-12-30T16:34:06.051Z,8.04
2018-12-30T16:36:34.366Z,8.06
2018-12-30T16:39:02.770Z,8.20
2018-12-30T16:41:31.137Z,8.19
2018-12-30T16:43:59.473Z,8.06
2018-12-30T16:46:27.790Z,8.13
2018-12-30T16:48:56.228Z,8.06
2018-12-30T16:51:24.589Z,8.16
2018-12-30T16:53:52.942Z,8.04
2018-12-30T16:56:21.265Z,8.03
2018-12-30T16:58:49.603Z,7.97
2018-12-30T17:01:17.933Z,8.10
2018-12-30T17:03:46.279Z,8.04
2018-12-30T17:06:14.962Z,8.01
2018-12-30T17:08:43.277Z,7.98
2018-12-30T17:11:11.620Z,7.99
2018-12-30T17:13:40.046Z,7.94
2018-12-30T17:16:11.506Z,8.02
2018-12-30T17:18:42.961Z,8.01
2018-12-30T17:21:11.272Z,7.75
2018-12-30T17:23:39.672Z,7.81
2018-12-30T17:26:07.999Z,7.90
2018-12-30T17:28:36.333Z,7.86
2018-12-30T17:31:04.708Z,7.93
2018-12-30T17:33:33.020Z,7.87
2018-12-30T17:36:01.390Z,7.81
2018-12-30T17:38:30.194Z,7.86
2018-12-30T17:41:01.686Z,7.92
2018-12-30T17:43:28.991Z,8.03
2018-12-30T17:45:57.346Z,7.93
2018-12-30T17:48:25.712Z,7.95
2018-12-30T17:50:54.029Z,7.97
2018-12-30T17:53:22.353Z,8.07
2018-12-30T17:55:51.131Z,7.93
2018-12-30T17:58:19.516Z,7.92
2018-12-30T18:00:47.850Z,7.92
2018-12-30T18:03:16.686Z,7.99
2018-12-30T18:05:45.069Z,7.89
2018-12-30T18:08:13.677Z,7.83
2018-12-30T18:10:42.007Z,7.99
2018-12-30T18:13:10.320Z,8.03
2018-12-30T18:15:38.782Z,8.02
2018-12-30T18:18:07.158Z,8.11
2018-12-30T18:20:35.585Z,7.86
2018-12-30T18:23:03.899Z,7.86
2018-12-30T18:25:32.241Z,7.78
2018-12-30T18:28:00.554Z,7.83
2018-12-30T18:30:28.899Z,7.86
2018-12-30T18:32:57.271Z,7.78
2018-12-30T18:35:25.586Z,7.78
2018-12-30T18:37:53.962Z,7.87
2018-12-30T18:40:22.348Z,7.64
2018-12-30T18:42:50.758Z,7.59
2018-12-30T18:45:19.342Z,7.59
2018-12-30T18:47:47.714Z,7.57
2018-12-30T18:50:16.932Z,7.58
2018-12-30T18:52:45.388Z,7.49
2018-12-30T18:55:15.852Z,7.51
2018-12-30T18:57:44.180Z,7.62
2018-12-30T19:00:12.552Z,7.58
2018-12-30T19:02:40.980Z,7.62
2018-12-30T19:05:09.379Z,7.59
2018-12-30T19:07:37.725Z,7.58
2018-12-30T19:10:06.601Z,7.49
2018-12-30T19:12:34.930Z,7.56
2018-12-30T19:15:03.885Z,7.72
2018-12-30T19:17:32.232Z,7.66
2018-12-30T19:20:00.558Z,7.58
2018-12-30T19:22:28.909Z,7.71
2018-12-30T19:24:57.226Z,7.69
2018-12-30T19:27:25.600Z,7.62
2018-12-30T19:29:53.934Z,7.64
2018-12-30T19:32:22.264Z,7.60
2018-12-30T19:34:50.670Z,7.59
2018-12-30T19:37:19.020Z,7.74
2018-12-30T19:39:47.365Z,7.63
2018-12-30T19:42:16.016Z,7.61
2018-12-30T19:44:44.357Z,7.70
2018-12-30T19:47:12.866Z,7.60
2018-12-30T19:50:06.921Z,7.68
2018-12-30T19:52:35.337Z,7.62
2018-12-30T19:55:03.923Z,7.71
2018-12-30T19:57:32.297Z,7.58
2018-12-30T20:00:00.971Z,7.52
2018-12-30T20:02:29.292Z,7.69
2018-12-30T20:04:57.650Z,7.70
2018-12-30T20:07:26.170Z,7.72
2018-12-30T20:09:54.514Z,7.64
2018-12-30T20:12:23.762Z,7.78
2018-12-30T20:14:52.189Z,7.60
2018-12-30T20:17:20.523Z,7.58
2018-12-30T20:19:48.888Z,7.54
2018-12-30T20:22:17.260Z,7.63
2018-12-30T20:24:45.638Z,7.40
2018-12-30T20:27:14.311Z,7.34
2018-12-30T20:29:42.605Z,7.54
2018-12-30T20:32:10.943Z,7.61
2018-12-30T20:34:39.297Z,7.50
2018-12-30T20:37:07.626Z,7.67
2018-12-30T20:39:35.980Z,7.44
2018-12-30T20:42:04.385Z,7.56
2018-12-30T20:44:32.739Z,7.49
2018-12-30T20:47:01.072Z,7.39
2018-12-30T20:49:29.433Z,7.48
2018-12-30T20:51:57.773Z,7.51
2018-12-30T20:54:26.520Z,7.37
2018-12-30T20:56:54.869Z,7.42
2018-12-30T20:59:23.258Z,7.46
2018-12-30T21:01:51.584Z,7.39
2018-12-30T21:04:19.909Z,7.35
2018-12-30T21:06:48.446Z,7.39
2018-12-30T21:09:17.105Z,7.33
2018-12-30T21:11:45.404Z,7.31
2018-12-30T21:14:14.303Z,7.32
2018-12-30T21:16:42.617Z,7.30
2018-12-30T21:19:10.977Z,7.30
2018-12-30T21:21:39.298Z,7.27
2018-12-30T21:24:07.647Z,7.09
2018-12-30T21:26:35.957Z,7.10
2018-12-30T21:29:04.354Z,7.16
2018-12-30T21:31:32.686Z,7.05
2018-12-30T21:34:01.037Z,7.07
2018-12-30T21:36:29.404Z,7.06
2018-12-30T21:38:57.762Z,6.92
2018-12-30T21:41:26.752Z,7.04
2018-12-30T21:43:55.090Z,7.00
2018-12-30T21:46:23.423Z,6.96
2018-12-30T21:48:51.925Z,6.94
2018-12-30T21:51:20.297Z,7.00
2018-12-30T21:53:48.851Z,6.99
2018-12-30T21:56:17.191Z,7.14
2018-12-30T21:58:45.513Z,7.08
2018-12-30T22:01:14.072Z,7.22
2018-12-30T22:03:42.942Z,7.12
2018-12-30T22:06:11.253Z,7.12
2018-12-30T22:08:39.565Z,7.20
2018-12-30T22:11:07.918Z,7.23
2018-12-30T22:13:36.316Z,7.22
2018-12-30T22:16:04.731Z,7.20
2018-12-30T22:18:33.066Z,7.07
2018-12-30T22:21:01.405Z,7.04
2018-12-30T22:23:29.831Z,6.96
2018-12-30T22:25:58.165Z,7.03
2018-12-30T22:28:26.490Z,7.16
2018-12-30T22:30:54.847Z,7.25
2018-12-30T22:33:23.186Z,7.13
2018-12-30T22:35:51.522Z,7.19
2018-12-30T22:38:19.872Z,7.04
2018-12-30T22:40:48.235Z,7.15
2018-12-30T22:43:16.553Z,7.11
2018-12-30T22:45:44.923Z,6.99
2018-12-30T22:48:13.930Z,7.00
2018-12-30T22:50:42.304Z,7.07
2018-12-30T22:53:10.681Z,7.00
2018-12-30T22:55:39.049Z,6.96
2018-12-30T22:58:07.430Z,7.01
2018-12-30T23:00:40.130Z,7.25
2018-12-30T23:03:08.459Z,7.17
2018-12-30T23:05:36.817Z,7.15
2018-12-30T23:08:05.227Z,7.09
2018-12-30T23:10:33.607Z,7.19
2018-12-30T23:13:01.949Z,7.18
2018-12-30T23:15:30.366Z,7.15
2018-12-30T23:17:58.756Z,7.11
2018-12-30T23:20:27.129Z,7.01
2018-12-30T23:22:55.501Z,6.91
2018-12-30T23:25:23.883Z,6.98
2018-12-30T23:27:53.087Z,6.97
2018-12-30T23:30:21.405Z,6.90
2018-12-30T23:32:49.813Z,6.93
2018-12-30T23:35:18.535Z,6.95
2018-12-30T23:37:46.858Z,6.96
2018-12-30T23:40:15.955Z,6.89
2018-12-30T23:42:44.406Z,6.77
2018-12-30T23:45:12.778Z,6.81
2018-12-30T23:47:41.122Z,6.80
2018-12-30T23:50:09.573Z,6.78
2018-12-30T23:52:37.944Z,6.86
2018-12-30T23:55:06.463Z,6.80
2018-12-30T23:57:34.810Z,6.88
